Flight Track Log - Related Links

Times and Time Zones

All times are in EDT time to prevent confusion due to time zone crossing. See the NMI1 flight status page for this flight to view local times or setup timezone preferences in your user account.

Time Position Orientation Groundspeed Altitude Reporting Facility
EDT Latitude Longitude Course Direction KTS MPH feet Rate Location/Type
Fri 08:15:07 AM 32.4311 -104.2861 342° North 161 185 5,900  Level Albuquerque Center
Fri 08:16:08 AM 32.4611 -104.3022 336° Northwest 120 138 6,600 645 Climbing Albuquerque Center
Fri 08:17:08 AM 32.4972 -104.3197 338° Northwest 128 147 7,200 595 Climbing Albuquerque Center
Fri 08:18:09 AM 32.5344 -104.3333 343° North 138 159 7,800 446 Climbing Albuquerque Center
Fri 08:19:09 AM 32.5750 -104.3461 345° North 149 171 8,100 99 Climbing Albuquerque Center
Fri 08:20:00 AM 32.5792 -104.3338 342° North  Level FlightAware Approximate
Fri 08:20:10 AM 32.6186 -104.3583 347° North 160 184 8,000  Level Albuquerque Center
Fri 08:21:10 AM 32.6581 -104.3769 338° Northwest 154 177 8,500 843 Climbing Albuquerque Center
Fri 08:22:11 AM 32.6914 -104.4036 326° Northwest 144 166 9,700 843 Climbing Albuquerque Center
Fri 08:23:11 AM 32.7286 -104.4200 340° North 148 170 10,200 198 Climbing Albuquerque Center
Fri 08:24:12 AM 32.7711 -104.4247 355° North 152 175 10,100 -50 Descending Albuquerque Center
Fri 08:25:12 AM 32.8142 -104.4186 North 156 180 10,100 -50 Level Albuquerque Center
Fri 08:26:13 AM 32.8539 -104.4347 341° North 151 174 10,000 -50 Descending Albuquerque Center
Fri 08:27:13 AM 32.8947 -104.4564 336° Northwest 149 171 10,000  Level Albuquerque Center
Fri 08:28:14 AM 32.9300 -104.4842 327° Northwest 152 175 10,000  Level Albuquerque Center
Fri 08:29:15 AM 32.9683 -104.5064 334° Northwest 153 176 10,000  Level Albuquerque Center
Fri 08:30:15 AM 33.0089 -104.5194 345° North 151 174 10,000  Level Albuquerque Center
Fri 08:31:16 AM 33.0508 -104.5281 350° North 153 176 10,000  Level Albuquerque Center
Fri 08:32:16 AM 33.0922 -104.5386 348° North 152 175 10,000  Level Albuquerque Center
Fri 08:33:17 AM 33.1336 -104.5528 344° North 154 177 10,000  Level Albuquerque Center
Fri 08:34:18 AM 33.1747 -104.5706 340° North 156 180 10,000  Level Albuquerque Center
Fri 08:35:18 AM 33.2161 -104.5858 343° North 156 180 10,000  Level Albuquerque Center
Fri 08:36:19 AM 33.2625 -104.5972 348° North 157 181 10,000  Level Albuquerque Center
Fri 08:37:19 AM 33.3033 -104.6114 344° North 161 185 10,000  Level Albuquerque Center
Fri 08:38:20 AM 33.3467 -104.6378 333° Northwest 160 184 10,000  Level Albuquerque Center
Fri 08:39:21 AM 33.3808 -104.6764 317° Northwest 167 192 10,000  Level Albuquerque Center
Fri 08:40:21 AM 33.4147 -104.7136 317° Northwest 166 191 10,000  Level Albuquerque Center
Fri 08:41:22 AM 33.4475 -104.7511 316° Northwest 164 189 10,000  Level Albuquerque Center
Fri 08:42:22 AM 33.4839 -104.7861 321° Northwest 167 192 10,000  Level Albuquerque Center
Fri 08:43:23 AM 33.5203 -104.8203 322° Northwest 167 192 10,000  Level Albuquerque Center
Fri 08:44:24 AM 33.5556 -104.8547 321° Northwest 164 189 10,000  Level Albuquerque Center
Fri 08:45:24 AM 33.5900 -104.8906 319° Northwest 162 186 10,000 -50 Level Albuquerque Center
Fri 08:46:25 AM 33.6275 -104.9275 321° Northwest 163 188 9,900 -50 Descending Albuquerque Center
Fri 08:47:25 AM 33.6603 -104.9661 316° Northwest 164 189 9,900  Level Albuquerque Center
Fri 08:48:26 AM 33.6950 -105.0014 320° Northwest 163 188 9,900  Level Albuquerque Center
Fri 08:49:27 AM 33.7281 -105.0378 318° Northwest 162 186 9,900  Level Albuquerque Center
Fri 08:50:27 AM 33.7631 -105.0719 321° Northwest 163 188 9,900  Level Albuquerque Center
Fri 08:51:28 AM 33.7989 -105.1044 323° Northwest 161 185 9,900  Level Albuquerque Center
Fri 08:52:29 AM 33.8339 -105.1403 320° Northwest 164 189 9,900  Level Albuquerque Center
Fri 08:53:29 AM 33.8681 -105.1694 325° Northwest 163 188 9,900  Level Albuquerque Center
Fri 08:54:30 AM 33.9103 -105.2075 323° Northwest 163 188 9,900  Level Albuquerque Center
Fri 08:55:30 AM 33.9469 -105.2403 323° Northwest 164 189 9,900 50 Level Albuquerque Center
Fri 08:56:31 AM 33.9775 -105.2706 321° Northwest 163 188 10,000 49 Climbing Albuquerque Center
Fri 08:57:32 AM 34.0150 -105.3025 325° Northwest 162 186 10,000  Level Albuquerque Center
Fri 08:58:32 AM 34.0500 -105.3389 319° Northwest 163 188 10,000  Level Albuquerque Center
Fri 08:59:33 AM 34.0867 -105.3731 322° Northwest 164 189 10,000  Level Albuquerque Center
Fri 09:00:34 AM 34.1233 -105.4078 322° Northwest 164 189 10,000  Level Albuquerque Center
Fri 09:01:34 AM 34.1594 -105.4419 322° Northwest 164 189 10,000  Level Albuquerque Center
Fri 09:02:35 AM 34.1947 -105.4772 320° Northwest 164 189 10,000  Level Albuquerque Center
Fri 09:03:36 AM 34.2286 -105.5122 320° Northwest 162 186 10,000  Level Albuquerque Center
Fri 09:04:36 AM 34.2622 -105.5481 319° Northwest 160 184 10,000  Level Albuquerque Center
Fri 09:05:37 AM 34.2906 -105.5892 310° West 160 184 10,000  Level Albuquerque Center
Fri 09:06:37 AM 34.3192 -105.6292 311° West 158 182 10,000  Level Albuquerque Center
Fri 09:07:38 AM 34.3517 -105.6642 318° Northwest 156 180 10,000  Level Albuquerque Center
Fri 09:08:39 AM 34.3878 -105.6967 323° Northwest 157 181 10,000  Level Albuquerque Center
Fri 09:09:39 AM 34.4244 -105.7278 325° Northwest 158 182 10,000  Level Albuquerque Center
Fri 09:10:40 AM 34.4622 -105.7528 331° Northwest 156 180 10,000  Level Albuquerque Center
Fri 09:11:41 AM 34.4986 -105.7794 329° Northwest 154 177 10,000  Level Albuquerque Center
Fri 09:12:42 AM 34.5367 -105.8042 332° Northwest 153 176 10,000 -50 Level Albuquerque Center
Fri 09:13:42 AM 34.5756 -105.8289 332° Northwest 155 178 9,900  Descending Albuquerque Center
Fri 09:14:43 AM 34.6119 -105.8561 328° Northwest 154 177 10,000 49 Climbing Albuquerque Center
Fri 09:15:44 AM 34.6472 -105.8858 325° Northwest 154 177 10,000  Level Albuquerque Center
Fri 09:16:44 AM 34.6836 -105.9164 325° Northwest 154 177 10,000  Level Albuquerque Center
Fri 09:17:45 AM 34.7203 -105.9469 326° Northwest 157 181 10,000  Level Albuquerque Center
Fri 09:18:46 AM 34.7575 -105.9797 324° Northwest 161 185 10,000  Level Albuquerque Center
Fri 09:19:47 AM 34.7942 -106.0139 323° Northwest 163 188 10,000  Level Albuquerque Center
Fri 09:20:48 AM 34.8294 -106.0492 321° Northwest 164 189 10,000  Level Albuquerque Center
Fri 09:21:48 AM 34.8614 -106.0825 319° Northwest 163 188 10,000  Level Albuquerque Center
Fri 09:22:49 AM 34.9017 -106.1253 319° Northwest 162 186 10,000  Level Albuquerque Center
Fri 09:23:50 AM 34.9353 -106.1622 318° Northwest 162 186 10,000  Level Albuquerque Center
Fri 09:24:07 AM 34.9442 -106.1747 311° West 162 186 10,000  Level Albuquerque Center
Fri 09:24:25 AM 34.9472 -106.1919 282° West 171 197 10,000  Level Albuquerque Center
Fri 09:24:51 AM 34.9503 -106.2111 281° West 163 188 10,000  Level Albuquerque Center
Fri 09:25:25 AM 34.9508 -106.2481 271° West 163 188 10,000  Level Albuquerque Center
Fri 09:25:52 AM 34.9528 -106.2658 278° West 164 189 10,000  Level Albuquerque Center
Fri 09:26:26 AM 34.9500 -106.3028 265° West 164 189 10,000  Level Albuquerque Center
Fri 09:26:53 AM 34.9511 -106.3219 274° West 164 189 10,000  Level Albuquerque Center
Fri 09:27:27 AM 34.9489 -106.3575 266° West 166 191 10,000  Level Albuquerque Center
Fri 09:27:53 AM 34.9492 -106.3778 271° West 165 190 10,000 -500 Level Albuquerque Center
Fri 09:28:27 AM 34.9483 -106.4147 268° West 172 198 9,500 -885 Descending Albuquerque Center
Fri 09:28:54 AM 34.9500 -106.4356 276° West 167 192 9,100 -1,180 Descending Albuquerque Center
Fri 09:29:28 AM 34.9503 -106.4739 271° West 173 199 8,300 -984 Descending Albuquerque Center
Fri 09:29:55 AM 34.9531 -106.4992 278° West 170 196 8,100 -1,082 Descending Albuquerque Center
Fri 09:30:29 AM 34.9778 -106.5211 324° Northwest 170 196 7,200 -1,180 Descending Albuquerque Center
Fri 09:30:56 AM 34.9883 -106.5375 308° West 173 199 6,900 -700 Descending Albuquerque Center
Fri 09:31:29 AM 35.0042 -106.5608 310° West 153 176 6,500 -787 Descending Albuquerque Center
Fri 09:31:57 AM 35.0128 -106.5747 307° West 158 182 6,100 -885 Descending Albuquerque Center
Fri 09:32:30 AM 35.0253 -106.5969 304° West 121 139 5,600 -787 Descending Albuquerque Center
Fri 09:32:58 AM 35.0344 -106.6069 318° Northwest 140 161 5,300 -643 Descending Albuquerque Center
Fri 09:34:00 AM 35.0402 -106.6092 101° East  Level Estimated
Fri 09:41:00 AM 35.0402 -106.6092 301° West  Level Estimated
Fri 09:42:00 AM 35.0402 -106.6092 301° West  Level Estimated
Fri 09:43:00 AM 35.0402 -106.6092 301° West  Level Estimated
Fri 09:44:00 AM 35.0402 -106.6092 301° West  Level Estimated
Fri 09:45:00 AM 35.0402 -106.6092 301° West  Level Estimated
Fri 09:46:00 AM 35.0402 -106.6092 301° West  Level Estimated
Fri 09:47:00 AM 35.0402 -106.6092 301° West  Level Estimated
Fri 09:48:00 AM 35.0402 -106.6092 301° West  Level Estimated
Fri 09:49:00 AM 35.0402 -106.6092 301° West  Level Estimated

Login

Don't have an account? Register now (free) for customized features, flight alerts, and more!